createdAt,value
2023-01-05T00:02:02.047Z,99267.13
2023-01-05T00:04:30.680Z,99256.56
2023-01-05T00:06:59.281Z,99254.47
2023-01-05T00:09:27.899Z,99255.17
2023-01-05T00:12:15.137Z,99252.28
2023-01-05T00:15:02.349Z,99250.01
2023-01-05T00:17:49.548Z,99253.30
2023-01-05T00:20:41.209Z,99247.38
2023-01-05T00:23:09.863Z,99240.97
2023-01-05T00:25:40.405Z,99238.34
2023-01-05T00:28:09.201Z,99236.41
2023-01-05T00:30:46.580Z,99229.80
2023-01-05T00:33:17.648Z,99231.89
2023-01-05T00:35:46.225Z,99232.77
2023-01-05T00:38:14.839Z,99230.17
2023-01-05T00:40:43.528Z,99221.66
2023-01-05T00:43:12.131Z,99213.88
2023-01-05T00:45:56.450Z,99210.73
2023-01-05T00:48:25.082Z,99205.90
2023-01-05T00:50:53.716Z,99202.63
2023-01-05T00:53:22.459Z,99200.26
2023-01-05T00:56:00.924Z,99197.65
2023-01-05T00:58:29.558Z,99199.08
2023-01-05T01:00:58.367Z,99195.63
2023-01-05T01:03:27.090Z,99198.58
2023-01-05T01:05:59.400Z,99194.71
2023-01-05T01:08:27.979Z,99190.73
2023-01-05T01:10:56.617Z,99188.27
2023-01-05T01:13:25.304Z,99186.65
2023-01-05T01:15:53.957Z,99196.88
2023-01-05T01:18:23.697Z,99203.73
2023-01-05T01:20:52.299Z,99200.10
2023-01-05T01:23:20.796Z,99203.17
2023-01-05T01:25:49.358Z,99248.43
2023-01-05T01:28:17.885Z,99267.64
2023-01-05T01:30:46.495Z,99262.01
2023-01-05T01:33:15.376Z,99238.63
2023-01-05T01:35:44.337Z,99226.39
2023-01-05T01:38:13.137Z,99226.89
2023-01-05T01:40:44.337Z,99234.20
2023-01-05T01:43:17.819Z,99241.39
2023-01-05T01:46:25.968Z,99235.95
2023-01-05T01:49:06.236Z,99233.55
2023-01-05T01:51:44.974Z,99225.36
2023-01-05T01:54:17.821Z,99212.56
2023-01-05T01:56:52.297Z,99202.20
2023-01-05T01:59:21.929Z,99194.58
2023-01-05T02:01:55.278Z,99196.91
2023-01-05T02:04:25.795Z,99195.86
2023-01-05T02:06:54.654Z,99201.70
2023-01-05T02:09:23.357Z,99196.80
2023-01-05T02:12:33.484Z,99190.50
2023-01-05T02:15:34.729Z,99188.48
2023-01-05T02:18:09.178Z,99183.55
2023-01-05T02:20:50.377Z,99186.16
2023-01-05T02:23:50.135Z,99184.60
2023-01-05T02:26:37.521Z,99182.91
2023-01-05T02:29:18.858Z,99180.09
2023-01-05T02:32:10.174Z,99176.67
2023-01-05T02:35:28.160Z,99175.80
2023-01-05T02:38:15.262Z,99175.91
2023-01-05T02:40:49.527Z,99178.52
2023-01-05T02:43:20.997Z,99178.20
2023-01-05T02:46:22.778Z,99179.54
2023-01-05T02:48:56.768Z,99176.02
2023-01-05T02:51:49.791Z,99176.09
2023-01-05T02:54:40.302Z,99179.48
2023-01-05T02:57:14.958Z,99185.70
2023-01-05T02:59:50.151Z,99182.03
2023-01-05T03:02:24.229Z,99181.38
2023-01-05T03:04:55.107Z,99180.20
2023-01-05T03:07:29.505Z,99179.77
2023-01-05T03:09:58.021Z,99169.32
2023-01-05T03:12:48.704Z,99171.63
2023-01-05T03:15:32.913Z,99172.77
2023-01-05T03:18:07.323Z,99171.00
2023-01-05T03:20:41.441Z,99173.54
2023-01-05T03:23:31.699Z,99172.60
2023-01-05T03:26:20.262Z,99169.33
2023-01-05T03:29:13.095Z,99173.80
2023-01-05T03:32:55.299Z,99170.90
2023-01-05T03:35:34.350Z,99176.66
2023-01-05T03:38:19.631Z,99172.42
2023-01-05T03:40:52.955Z,99163.90
2023-01-05T03:43:22.727Z,99169.39
2023-01-05T03:45:58.402Z,99169.48
2023-01-05T03:48:29.470Z,99173.54
2023-01-05T03:50:58.167Z,99170.52
2023-01-05T03:53:26.705Z,99180.61
2023-01-05T03:55:55.322Z,99177.02
2023-01-05T03:58:23.857Z,99171.70
2023-01-05T04:00:52.376Z,99173.91
2023-01-05T04:03:24.006Z,99175.45
2023-01-05T04:05:54.821Z,99176.35
2023-01-05T04:08:23.362Z,99171.89
2023-01-05T04:10:54.894Z,99174.86
2023-01-05T04:13:23.959Z,99177.52
2023-01-05T04:15:52.602Z,99173.30
2023-01-05T04:18:21.195Z,99175.66
2023-01-05T04:20:49.687Z,99170.77
2023-01-05T04:23:18.210Z,99172.09
2023-01-05T04:25:48.153Z,99171.53
2023-01-05T04:28:16.641Z,99171.45
2023-01-05T04:30:45.484Z,99170.01
2023-01-05T04:33:13.991Z,99164.77
2023-01-05T04:35:42.504Z,99169.59
2023-01-05T04:38:11.509Z,99170.92
2023-01-05T04:40:40.455Z,99172.77
2023-01-05T04:43:08.948Z,99165.95
2023-01-05T04:45:37.590Z,99168.83
2023-01-05T04:48:06.329Z,99173.98
2023-01-05T04:50:34.839Z,99167.34
2023-01-05T04:53:03.461Z,99162.28
2023-01-05T04:55:31.969Z,99166.89
2023-01-05T04:58:00.498Z,99165.81
2023-01-05T05:00:32.082Z,99169.18
2023-01-05T05:03:02.845Z,99170.52
2023-01-05T05:05:32.309Z,99165.16
2023-01-05T05:08:00.941Z,99165.80
2023-01-05T05:10:29.441Z,99168.85
2023-01-05T05:12:58.073Z,99169.75
2023-01-05T05:15:26.573Z,99170.09
2023-01-05T05:17:55.121Z,99173.35
2023-01-05T05:20:23.601Z,99175.45
2023-01-05T05:22:52.203Z,99174.05
2023-01-05T05:25:20.679Z,99179.62
2023-01-05T05:27:49.189Z,99175.23
2023-01-05T05:30:17.860Z,99171.05
2023-01-05T05:32:46.414Z,99169.70
2023-01-05T05:35:14.999Z,99177.63
2023-01-05T05:37:43.490Z,99178.31
2023-01-05T05:40:12.840Z,99176.20
2023-01-05T05:42:41.374Z,99174.02
2023-01-05T05:49:28.311Z,99179.23
2023-01-05T05:51:56.960Z,99177.41
2023-01-05T05:54:25.472Z,99182.31
2023-01-05T05:56:54.153Z,99189.83
2023-01-05T05:59:22.778Z,99194.95
2023-01-05T06:01:52.970Z,99194.44
2023-01-05T06:04:21.677Z,99201.53
2023-01-05T06:06:50.203Z,99203.45
2023-01-05T06:09:18.658Z,99207.50
2023-01-05T06:11:47.392Z,99212.12
2023-01-05T06:14:16.088Z,99214.61
2023-01-05T06:16:46.034Z,99212.78
2023-01-05T06:19:14.620Z,99228.13
2023-01-05T06:21:43.241Z,99233.27
2023-01-05T06:24:11.763Z,99235.02
2023-01-05T06:26:40.393Z,99239.23
2023-01-05T06:29:08.899Z,99241.95
2023-01-05T06:31:37.522Z,99244.80
2023-01-05T06:34:06.231Z,99245.73
2023-01-05T06:36:34.721Z,99244.27
2023-01-05T06:39:03.299Z,99241.97
2023-01-05T06:41:31.961Z,99244.94
2023-01-05T06:44:00.488Z,99244.73
2023-01-05T06:46:31.235Z,99242.00
2023-01-05T06:48:59.792Z,99239.77
2023-01-05T06:51:28.338Z,99245.50
2023-01-05T06:53:56.908Z,99244.48
2023-01-05T06:56:25.420Z,99246.56
2023-01-05T06:58:53.981Z,99247.92
2023-01-05T07:01:22.765Z,99247.92
2023-01-05T07:03:51.403Z,99251.40
2023-01-05T07:06:20.196Z,99255.54
2023-01-05T07:08:48.948Z,99250.52
2023-01-05T07:11:17.504Z,99254.16
2023-01-05T07:13:50.850Z,99261.09
2023-01-05T07:16:20.124Z,99267.31
2023-01-05T07:18:49.088Z,99273.91
2023-01-05T07:21:17.587Z,99274.18
2023-01-05T07:23:46.079Z,99273.19
2023-01-05T07:26:14.869Z,99275.84
2023-01-05T07:28:43.449Z,99274.46
2023-01-05T07:31:12.211Z,99277.16
2023-01-05T07:33:40.730Z,99278.63
2023-01-05T07:36:09.555Z,99284.27
2023-01-05T07:38:38.257Z,99283.48
2023-01-05T07:41:06.889Z,99284.61
2023-01-05T07:43:36.100Z,99280.34
2023-01-05T07:46:05.530Z,99284.21
2023-01-05T07:48:34.198Z,99290.36
2023-01-05T07:51:06.197Z,99299.29
2023-01-05T07:53:44.186Z,99294.34
2023-01-05T07:56:13.517Z,99292.15
2023-01-05T07:58:45.048Z,99293.83
2023-01-05T08:01:15.438Z,99298.78
2023-01-05T08:03:44.307Z,99302.25
2023-01-05T08:06:18.828Z,99296.72
2023-01-05T08:08:48.197Z,99303.17
2023-01-05T08:11:18.388Z,99303.19
2023-01-05T08:14:06.039Z,99312.13
2023-01-05T08:16:34.797Z,99312.23
2023-01-05T08:19:07.770Z,99314.69
2023-01-05T08:21:39.478Z,99323.40
2023-01-05T08:24:08.519Z,99328.30
2023-01-05T08:26:37.178Z,99329.02
2023-01-05T08:29:05.819Z,99338.02
2023-01-05T08:31:37.871Z,99343.21
2023-01-05T08:34:06.965Z,99341.54
2023-01-05T08:36:35.622Z,99349.27
2023-01-05T08:39:04.731Z,99352.23
2023-01-05T08:41:36.221Z,99362.44
2023-01-05T08:44:16.031Z,99367.76
2023-01-05T08:46:44.847Z,99367.54
2023-01-05T08:49:13.598Z,99372.83
2023-01-05T08:51:42.347Z,99378.29
2023-01-05T08:54:11.152Z,99373.39
2023-01-05T08:56:39.919Z,99377.61
2023-01-05T08:59:13.898Z,99380.52
2023-01-05T09:01:42.780Z,99381.65
2023-01-05T09:04:11.626Z,99373.43
2023-01-05T09:06:40.248Z,99370.88
2023-01-05T09:09:09.646Z,99373.01
2023-01-05T09:11:38.303Z,99367.60
2023-01-05T09:14:06.808Z,99373.30
2023-01-05T09:17:05.316Z,99372.25
2023-01-05T09:19:24.646Z,99375.71
2023-01-05T09:21:53.913Z,99377.96
2023-01-05T09:24:22.641Z,99381.33
2023-01-05T09:26:51.241Z,99385.16
2023-01-05T09:29:19.771Z,99387.73
2023-01-05T09:31:48.407Z,99396.02
2023-01-05T09:34:19.364Z,99399.57
2023-01-05T09:36:48.173Z,99397.81
2023-01-05T09:39:16.850Z,99400.88
2023-01-05T09:41:50.230Z,99404.95
2023-01-05T09:44:43.096Z,99403.77
2023-01-05T09:47:23.239Z,99404.27
2023-01-05T09:49:52.665Z,99407.38
2023-01-05T09:52:23.183Z,99404.00
2023-01-05T09:54:52.064Z,99405.47
2023-01-05T09:57:29.501Z,99410.65
2023-01-05T10:00:03.065Z,99405.61
2023-01-05T10:02:37.753Z,99404.63
2023-01-05T10:05:07.852Z,99407.05
2023-01-05T10:07:59.310Z,99408.36
2023-01-05T10:10:42.397Z,99405.42
2023-01-05T10:13:25.323Z,99406.48
2023-01-05T10:15:55.968Z,99411.58
2023-01-05T10:18:27.026Z,99404.77
2023-01-05T10:21:33.860Z,99410.16
2023-01-05T10:24:21.917Z,99401.77
2023-01-05T10:27:25.888Z,99407.79
2023-01-05T10:30:17.326Z,99404.27
2023-01-05T10:32:50.206Z,99403.81
2023-01-05T10:36:06.255Z,99403.77
2023-01-05T10:38:50.001Z,99400.68
2023-01-05T10:41:21.524Z,99388.91
2023-01-05T10:44:10.041Z,99388.80
2023-01-05T10:46:47.181Z,99386.70
2023-01-05T10:49:27.016Z,99391.91
2023-01-05T10:52:00.780Z,99387.88
2023-01-05T10:54:40.265Z,99390.49
2023-01-05T10:57:34.077Z,99376.45
2023-01-05T11:00:17.560Z,99378.11
2023-01-05T11:03:15.111Z,99376.19
2023-01-05T11:05:46.820Z,99377.33
2023-01-05T11:08:19.036Z,99379.68
2023-01-05T11:10:57.110Z,99379.76
2023-01-05T11:13:29.829Z,99380.63
2023-01-05T11:16:16.736Z,99377.73
2023-01-05T11:19:08.252Z,99376.38
2023-01-05T11:21:36.937Z,99378.88
2023-01-05T11:24:25.800Z,99377.90
2023-01-05T11:26:56.989Z,99383.57
2023-01-05T11:29:25.950Z,99380.65
2023-01-05T11:32:04.152Z,99383.98
2023-01-05T11:34:47.388Z,99388.77
2023-01-05T11:37:25.789Z,99388.39
2023-01-05T11:39:58.924Z,99389.46
2023-01-05T11:42:27.357Z,99387.77
2023-01-05T11:45:18.238Z,99380.17
2023-01-05T11:47:52.707Z,99385.23
2023-01-05T11:50:27.952Z,99387.30
2023-01-05T11:52:59.346Z,99386.48
2023-01-05T11:55:34.060Z,99389.59
2023-01-05T11:58:24.867Z,99390.09
2023-01-05T12:01:13.767Z,99388.34
2023-01-05T12:03:58.658Z,99387.02
2023-01-05T12:06:42.748Z,99387.01
2023-01-05T12:09:35.209Z,99384.94
2023-01-05T12:12:27.459Z,99388.84
2023-01-05T12:15:12.931Z,99388.72
2023-01-05T12:18:19.529Z,99397.73
2023-01-05T12:21:12.826Z,99398.05
2023-01-05T12:23:47.289Z,99402.13
2023-01-05T12:26:21.549Z,99405.00
2023-01-05T12:34:53.688Z,99413.31
2023-01-05T12:37:37.547Z,99411.12
2023-01-05T12:40:38.510Z,99416.34
2023-01-05T12:43:15.426Z,99421.77
2023-01-05T12:46:05.962Z,99421.24
2023-01-05T12:49:17.707Z,99432.73
2023-01-05T12:51:57.077Z,99437.54
2023-01-05T12:54:39.215Z,99437.96
2023-01-05T12:57:15.453Z,99442.92
2023-01-05T13:00:13.237Z,99447.08
2023-01-05T13:02:54.113Z,99451.79
2023-01-05T13:05:46.615Z,99463.34
2023-01-05T13:08:32.817Z,99464.94
2023-01-05T13:11:32.297Z,99465.23
2023-01-05T13:14:06.608Z,99468.71
2023-01-05T13:16:44.031Z,99470.27
2023-01-05T13:19:25.088Z,99470.23
2023-01-05T13:21:55.394Z,99464.42
2023-01-05T13:24:40.389Z,99461.76
2023-01-05T13:27:11.202Z,99459.41
2023-01-05T13:29:44.768Z,99469.40
2023-01-05T13:32:47.876Z,99471.77
2023-01-05T13:35:34.590Z,99475.23
2023-01-05T13:38:25.191Z,99483.66
2023-01-05T13:41:09.109Z,99489.29
2023-01-05T14:04:31.572Z,99541.91
2023-01-05T14:07:13.202Z,99566.61
2023-01-05T14:09:49.643Z,99572.27
2023-01-05T14:12:21.893Z,99584.23
2023-01-05T14:15:35.588Z,99596.08
2023-01-05T14:18:46.136Z,99610.95
2023-01-05T14:22:05.069Z,99623.55
2023-01-05T14:24:48.394Z,99641.23
2023-01-05T14:27:22.562Z,99652.08
2023-01-05T14:29:59.639Z,99670.34
2023-01-05T14:32:41.905Z,99682.10
2023-01-05T14:35:22.249Z,99681.51
2023-01-05T14:38:07.760Z,99692.16
2023-01-05T14:40:46.969Z,99703.38
2023-01-05T14:43:22.215Z,99719.83
2023-01-05T14:46:10.785Z,99724.80
2023-01-05T14:49:05.640Z,99740.16
2023-01-05T14:51:40.160Z,99748.65
2023-01-05T14:54:12.845Z,99757.02
2023-01-05T14:57:23.077Z,99769.08
2023-01-05T15:00:04.619Z,99768.12
2023-01-05T15:03:06.316Z,99778.84
2023-01-05T15:06:02.265Z,99781.82
2023-01-05T15:08:44.299Z,99787.28
2023-01-05T15:11:38.674Z,99795.63
2023-01-05T15:14:37.140Z,99803.24
2023-01-05T15:17:30.677Z,99810.52
2023-01-05T15:20:27.793Z,99821.71
2023-01-05T15:23:38.617Z,99830.85
2023-01-05T15:26:23.497Z,99831.83
2023-01-05T15:29:13.686Z,99837.74
2023-01-05T15:31:55.474Z,99841.75
2023-01-05T15:34:49.596Z,99842.27
2023-01-05T15:37:31.699Z,99853.98
2023-01-05T15:40:29.192Z,99849.88
2023-01-05T15:43:04.444Z,99856.61
2023-01-05T15:45:43.446Z,99863.98
2023-01-05T15:48:40.385Z,99869.30
2023-01-05T15:51:22.976Z,99872.56
2023-01-05T15:54:02.276Z,99882.74
2023-01-05T15:56:42.556Z,99882.21
2023-01-05T15:59:20.325Z,99886.48
2023-01-05T16:01:48.718Z,99893.70
2023-01-05T16:04:17.159Z,99896.30
2023-01-05T16:06:48.840Z,99900.95
2023-01-05T16:09:28.990Z,99910.23
2023-01-05T16:12:23.576Z,99913.66
2023-01-05T16:15:02.122Z,99919.89
2023-01-05T16:17:34.818Z,99926.45
2023-01-05T16:20:22.724Z,99929.91
2023-01-05T16:23:08.296Z,99934.42
2023-01-05T16:25:44.061Z,99934.19
2023-01-05T16:28:21.104Z,99942.02
2023-01-05T16:30:59.404Z,99951.73
2023-01-05T16:33:36.292Z,99953.48
2023-01-05T16:36:22.578Z,99960.55
2023-01-05T16:39:24.645Z,99957.74
2023-01-05T16:42:30.485Z,99970.75
2023-01-05T16:45:03.119Z,99975.51
2023-01-05T16:47:40.019Z,99985.15
2023-01-05T16:50:20.561Z,99990.98
2023-01-05T16:53:21.594Z,99995.30
2023-01-05T16:55:59.551Z,100005.83
2023-01-05T16:58:34.493Z,100004.48
2023-01-05T17:01:14.418Z,100011.73
2023-01-05T17:03:46.574Z,100014.52
2023-01-05T17:06:25.264Z,100026.40
2023-01-05T17:09:00.409Z,100026.64
2023-01-05T17:11:38.571Z,100027.84
2023-01-05T17:14:15.200Z,100028.05
2023-01-05T17:16:51.924Z,100038.06
2023-01-05T17:19:24.379Z,100043.30
2023-01-05T17:22:01.202Z,100041.94
2023-01-05T17:24:33.608Z,100047.94
2023-01-05T17:29:48.676Z,100059.32
2023-01-05T17:32:24.996Z,100066.73
2023-01-05T17:35:03.937Z,100072.95
2023-01-05T17:37:42.117Z,100080.36
2023-01-05T17:40:21.083Z,100084.02
2023-01-05T17:42:53.811Z,100091.29
2023-01-05T17:45:27.761Z,100094.09
2023-01-05T17:48:08.741Z,100099.41
2023-01-05T17:50:44.046Z,100105.67
2023-01-05T17:53:17.207Z,100117.89
2023-01-05T17:55:49.403Z,100122.39
2023-01-05T17:58:26.487Z,100127.21
2023-01-05T18:01:02.210Z,100134.42
2023-01-05T18:03:39.080Z,100135.64
2023-01-05T18:06:11.166Z,100140.62
2023-01-05T18:08:45.167Z,100147.34
2023-01-05T18:11:22.093Z,100154.39
2023-01-05T18:13:54.811Z,100160.89
2023-01-05T18:16:27.289Z,100168.77
2023-01-05T18:19:01.977Z,100169.95
2023-01-05T18:21:36.192Z,100175.11
2023-01-05T18:24:09.819Z,100183.55
2023-01-05T18:26:43.771Z,100190.26
2023-01-05T18:29:22.298Z,100192.14
2023-01-05T18:31:55.136Z,100199.55
2023-01-05T18:34:27.029Z,100203.70
2023-01-05T18:37:06.368Z,100206.43
2023-01-05T18:39:45.072Z,100210.89
2023-01-05T18:42:18.810Z,100215.38
2023-01-05T18:44:52.500Z,100218.81
2023-01-05T18:47:26.759Z,100227.07
2023-01-05T18:50:01.309Z,100231.88
2023-01-05T18:52:36.426Z,100233.59
2023-01-05T18:55:23.366Z,100240.27
2023-01-05T18:57:57.891Z,100250.55
2023-01-05T19:00:33.579Z,100252.99
2023-01-05T19:03:06.349Z,100260.39
2023-01-05T19:05:43.290Z,100260.23
2023-01-05T19:08:15.116Z,100266.02
2023-01-05T19:10:49.584Z,100273.05
2023-01-05T19:13:24.910Z,100276.15
2023-01-05T19:16:01.763Z,100281.68
2023-01-05T19:18:34.045Z,100282.34
2023-01-05T19:21:06.899Z,100285.77
2023-01-05T19:23:40.922Z,100284.06
2023-01-05T19:26:18.631Z,100287.33
2023-01-05T19:28:52.897Z,100291.10
2023-01-05T19:31:25.619Z,100290.41
2023-01-05T19:34:00.819Z,100297.81
2023-01-05T19:36:36.027Z,100298.70
2023-01-05T19:39:20.259Z,100311.40
2023-01-05T19:41:52.873Z,100317.23
2023-01-05T19:44:30.401Z,100316.00
2023-01-05T19:47:05.028Z,100321.33
2023-01-05T19:49:37.197Z,100330.96
2023-01-05T19:52:10.370Z,100333.50
2023-01-05T19:54:45.590Z,100337.80
2023-01-05T19:57:19.590Z,100346.21
2023-01-05T19:59:52.120Z,100351.38
2023-01-05T20:02:24.188Z,100353.45
2023-01-05T20:04:58.451Z,100359.16
2023-01-05T20:07:32.161Z,100360.70
2023-01-05T20:10:06.057Z,100365.34
2023-01-05T20:12:39.952Z,100372.05
2023-01-05T20:15:15.339Z,100375.81
2023-01-05T20:17:47.933Z,100377.02
2023-01-05T20:20:20.862Z,100380.47
2023-01-05T20:22:54.408Z,100387.17
2023-01-05T20:25:27.417Z,100388.88
2023-01-05T20:28:00.041Z,100392.48
2023-01-05T20:30:38.021Z,100396.46
2023-01-05T20:33:13.337Z,100400.08
2023-01-05T20:35:48.611Z,100404.70
2023-01-05T20:38:20.701Z,100406.56
2023-01-05T20:40:56.379Z,100413.95
2023-01-05T20:43:30.301Z,100419.10
2023-01-05T20:46:02.518Z,100423.89
2023-01-05T20:48:35.683Z,100429.38
2023-01-05T20:51:11.800Z,100428.52
2023-01-05T20:53:45.429Z,100435.20
2023-01-05T20:56:23.307Z,100439.67
2023-01-05T20:59:00.473Z,100441.39
2023-01-05T21:01:34.241Z,100446.36
2023-01-05T21:04:07.204Z,100453.76
2023-01-05T21:06:42.076Z,100455.48
2023-01-05T21:09:15.331Z,100462.56
2023-01-05T21:11:47.777Z,100462.05
2023-01-05T21:14:36.103Z,100468.41
2023-01-05T21:17:11.715Z,100472.52
2023-01-05T21:19:44.472Z,100470.27
2023-01-05T21:22:21.845Z,100478.32
2023-01-05T21:24:53.621Z,100483.46
2023-01-05T21:27:27.577Z,100489.66
2023-01-05T21:30:14.850Z,100494.13
2023-01-05T21:32:46.547Z,100505.10
2023-01-05T21:35:24.461Z,100510.78
2023-01-05T21:37:57.696Z,100515.07
2023-01-05T21:40:31.773Z,100515.59
2023-01-05T21:43:04.298Z,100519.19
2023-01-05T21:45:40.906Z,100522.46
2023-01-05T21:48:15.987Z,100528.81
2023-01-05T21:51:07.316Z,100535.48
2023-01-05T21:53:59.595Z,100537.89
2023-01-05T21:56:38.747Z,100543.59
2023-01-05T21:59:12.675Z,100545.98
2023-01-05T22:01:44.547Z,100552.87
2023-01-05T22:04:18.714Z,100559.23
2023-01-05T22:06:51.437Z,100560.27
2023-01-05T22:09:23.858Z,100567.31
2023-01-05T22:11:57.516Z,100570.41
2023-01-05T22:14:29.767Z,100579.50
2023-01-05T22:17:02.100Z,100583.80
2023-01-05T22:19:34.685Z,100591.34
2023-01-05T22:22:13.044Z,100598.05
2023-01-05T22:27:52.587Z,100605.61
2023-01-05T22:30:26.700Z,100606.66
2023-01-05T22:32:59.896Z,100604.07
2023-01-05T22:35:38.809Z,100602.88
2023-01-05T22:38:23.496Z,100607.34
2023-01-05T22:40:58.489Z,100612.83
2023-01-05T22:43:35.257Z,100609.73
2023-01-05T22:46:15.239Z,100612.66
2023-01-05T22:48:52.638Z,100611.77
2023-01-05T22:51:34.450Z,100613.80
2023-01-05T22:54:08.593Z,100616.71
2023-01-05T22:56:41.827Z,100620.14
2023-01-05T22:59:18.576Z,100622.02
2023-01-05T23:01:51.799Z,100630.43
2023-01-05T23:04:51.928Z,100635.23
2023-01-05T23:07:26.046Z,100637.13
2023-01-05T23:09:59.637Z,100640.07
2023-01-05T23:12:34.514Z,100645.91
2023-01-05T23:15:12.809Z,100648.30
2023-01-05T23:17:46.605Z,100657.26
2023-01-05T23:20:19.100Z,100664.13
2023-01-05T23:22:54.741Z,100666.89
2023-01-05T23:25:29.561Z,100663.98
2023-01-05T23:28:07.469Z,100667.05
2023-01-05T23:30:40.555Z,100670.65
2023-01-05T23:33:14.495Z,100671.85
2023-01-05T23:35:47.711Z,100678.52
2023-01-05T23:38:20.611Z,100678.70
2023-01-05T23:40:55.594Z,100681.61
2023-01-05T23:43:29.352Z,100679.59
2023-01-05T23:46:03.874Z,100680.80
2023-01-05T23:48:39.254Z,100681.98
2023-01-05T23:51:17.451Z,100680.08
2023-01-05T23:53:53.425Z,100682.67
2023-01-05T23:56:30.862Z,100684.03
2023-01-05T23:59:09.231Z,100686.48
